sensor_id;sensor_type;location;lat;lon;timestamp;P1;durP1;ratioP1;P2;durP2;ratioP2
13764;SDS011;6953;48.810;9.204;2023-03-03T00:02:06;0.93;;;0.93;;
13764;SDS011;6953;48.810;9.204;2023-03-03T00:04:31;1.10;;;1.10;;
13764;SDS011;6953;48.810;9.204;2023-03-03T00:06:57;1.00;;;1.00;;
13764;SDS011;6953;48.810;9.204;2023-03-03T00:09:22;1.20;;;1.20;;
13764;SDS011;6953;48.810;9.204;2023-03-03T00:11:49;1.20;;;1.20;;
13764;SDS011;6953;48.810;9.204;2023-03-03T00:14:23;1.20;;;1.20;;
13764;SDS011;6953;48.810;9.204;2023-03-03T00:16:54;1.20;;;1.20;;
13764;SDS011;6953;48.810;9.204;2023-03-03T00:19:20;1.10;;;1.10;;
13764;SDS011;6953;48.810;9.204;2023-03-03T00:21:48;1.00;;;1.00;;
13764;SDS011;6953;48.810;9.204;2023-03-03T00:24:19;1.27;;;1.27;;
13764;SDS011;6953;48.810;9.204;2023-03-03T00:29:22;1.03;;;1.03;;
13764;SDS011;6953;48.810;9.204;2023-03-03T00:31:52;1.10;;;1.10;;
13764;SDS011;6953;48.810;9.204;2023-03-03T00:34:20;1.00;;;1.00;;
13764;SDS011;6953;48.810;9.204;2023-03-03T00:36:50;1.30;;;1.30;;
13764;SDS011;6953;48.810;9.204;2023-03-03T00:39:32;0.90;;;0.90;;
13764;SDS011;6953;48.810;9.204;2023-03-03T00:42:00;1.10;;;1.10;;
13764;SDS011;6953;48.810;9.204;2023-03-03T00:44:37;0.90;;;0.90;;
13764;SDS011;6953;48.810;9.204;2023-03-03T00:47:23;0.90;;;0.90;;
13764;SDS011;6953;48.810;9.204;2023-03-03T00:49:55;1.20;;;1.20;;
13764;SDS011;6953;48.810;9.204;2023-03-03T00:52:24;1.13;;;1.13;;
13764;SDS011;6953;48.810;9.204;2023-03-03T00:54:52;1.03;;;1.03;;
13764;SDS011;6953;48.810;9.204;2023-03-03T00:57:17;1.10;;;1.10;;
13764;SDS011;6953;48.810;9.204;2023-03-03T00:59:43;0.90;;;0.90;;
13764;SDS011;6953;48.810;9.204;2023-03-03T01:02:08;1.00;;;1.00;;
13764;SDS011;6953;48.810;9.204;2023-03-03T01:04:34;1.10;;;1.10;;
13764;SDS011;6953;48.810;9.204;2023-03-03T01:06:59;1.10;;;1.10;;
13764;SDS011;6953;48.810;9.204;2023-03-03T01:09:24;1.00;;;1.00;;
13764;SDS011;6953;48.810;9.204;2023-03-03T01:11:50;1.23;;;1.23;;
13764;SDS011;6953;48.810;9.204;2023-03-03T01:14:16;1.00;;;1.00;;
13764;SDS011;6953;48.810;9.204;2023-03-03T01:16:41;1.20;;;1.20;;
13764;SDS011;6953;48.810;9.204;2023-03-03T01:19:07;1.00;;;1.00;;
13764;SDS011;6953;48.810;9.204;2023-03-03T01:21:32;0.90;;;0.90;;
13764;SDS011;6953;48.810;9.204;2023-03-03T01:23:58;0.90;;;0.90;;
13764;SDS011;6953;48.810;9.204;2023-03-03T01:26:23;0.83;;;0.83;;
13764;SDS011;6953;48.810;9.204;2023-03-03T01:28:49;0.90;;;0.90;;
13764;SDS011;6953;48.810;9.204;2023-03-03T01:31:14;0.80;;;0.80;;
13764;SDS011;6953;48.810;9.204;2023-03-03T01:33:39;0.80;;;0.80;;
13764;SDS011;6953;48.810;9.204;2023-03-03T01:36:05;0.90;;;0.90;;
13764;SDS011;6953;48.810;9.204;2023-03-03T01:38:34;0.87;;;0.87;;
13764;SDS011;6953;48.810;9.204;2023-03-03T01:41:00;0.90;;;0.90;;
13764;SDS011;6953;48.810;9.204;2023-03-03T01:43:30;0.90;;;0.90;;
13764;SDS011;6953;48.810;9.204;2023-03-03T01:48:30;0.90;;;0.90;;
13764;SDS011;6953;48.810;9.204;2023-03-03T01:51:18;0.90;;;0.90;;
13764;SDS011;6953;48.810;9.204;2023-03-03T01:53:52;0.90;;;0.90;;
13764;SDS011;6953;48.810;9.204;2023-03-03T01:56:20;0.87;;;0.87;;
13764;SDS011;6953;48.810;9.204;2023-03-03T01:58:53;0.80;;;0.80;;
13764;SDS011;6953;48.810;9.204;2023-03-03T02:01:25;0.80;;;0.80;;
13764;SDS011;6953;48.810;9.204;2023-03-03T02:03:53;0.80;;;0.80;;
13764;SDS011;6953;48.810;9.204;2023-03-03T02:06:21;0.80;;;0.80;;
13764;SDS011;6953;48.810;9.204;2023-03-03T02:11:33;0.80;;;0.80;;
13764;SDS011;6953;48.810;9.204;2023-03-03T02:14:01;0.80;;;0.80;;
13764;SDS011;6953;48.810;9.204;2023-03-03T02:16:27;0.90;;;0.90;;
13764;SDS011;6953;48.810;9.204;2023-03-03T02:18:52;0.80;;;0.80;;
13764;SDS011;6953;48.810;9.204;2023-03-03T02:21:19;0.90;;;0.90;;
13764;SDS011;6953;48.810;9.204;2023-03-03T02:26:40;0.80;;;0.80;;
13764;SDS011;6953;48.810;9.204;2023-03-03T02:29:07;0.90;;;0.90;;
13764;SDS011;6953;48.810;9.204;2023-03-03T02:31:34;0.80;;;0.80;;
13764;SDS011;6953;48.810;9.204;2023-03-03T02:34:00;1.00;;;1.00;;
13764;SDS011;6953;48.810;9.204;2023-03-03T02:36:29;0.90;;;0.90;;
13764;SDS011;6953;48.810;9.204;2023-03-03T02:39:11;0.90;;;0.90;;
13764;SDS011;6953;48.810;9.204;2023-03-03T02:44:32;0.97;;;0.97;;
13764;SDS011;6953;48.810;9.204;2023-03-03T02:46:58;0.90;;;0.90;;
13764;SDS011;6953;48.810;9.204;2023-03-03T02:49:25;0.90;;;0.90;;
13764;SDS011;6953;48.810;9.204;2023-03-03T02:51:53;0.90;;;0.90;;
13764;SDS011;6953;48.810;9.204;2023-03-03T02:54:20;0.90;;;0.90;;
13764;SDS011;6953;48.810;9.204;2023-03-03T02:56:46;0.90;;;0.90;;
13764;SDS011;6953;48.810;9.204;2023-03-03T02:59:12;0.80;;;0.80;;
13764;SDS011;6953;48.810;9.204;2023-03-03T03:01:38;0.90;;;0.90;;
13764;SDS011;6953;48.810;9.204;2023-03-03T03:04:05;0.90;;;0.90;;
13764;SDS011;6953;48.810;9.204;2023-03-03T03:06:33;0.90;;;0.90;;
13764;SDS011;6953;48.810;9.204;2023-03-03T03:08:58;0.80;;;0.80;;
13764;SDS011;6953;48.810;9.204;2023-03-03T03:11:24;0.90;;;0.90;;
13764;SDS011;6953;48.810;9.204;2023-03-03T03:13:50;0.90;;;0.90;;
13764;SDS011;6953;48.810;9.204;2023-03-03T03:16:16;0.80;;;0.80;;
13764;SDS011;6953;48.810;9.204;2023-03-03T03:18:41;0.90;;;0.90;;
13764;SDS011;6953;48.810;9.204;2023-03-03T03:21:07;0.90;;;0.90;;
13764;SDS011;6953;48.810;9.204;2023-03-03T03:23:34;0.80;;;0.80;;
13764;SDS011;6953;48.810;9.204;2023-03-03T03:26:00;0.87;;;0.87;;
13764;SDS011;6953;48.810;9.204;2023-03-03T03:28:25;0.80;;;0.80;;
13764;SDS011;6953;48.810;9.204;2023-03-03T03:30:50;0.80;;;0.80;;
13764;SDS011;6953;48.810;9.204;2023-03-03T03:33:16;0.90;;;0.90;;
13764;SDS011;6953;48.810;9.204;2023-03-03T03:35:41;0.90;;;0.90;;
13764;SDS011;6953;48.810;9.204;2023-03-03T03:38:09;0.80;;;0.80;;
13764;SDS011;6953;48.810;9.204;2023-03-03T03:40:36;0.80;;;0.80;;
13764;SDS011;6953;48.810;9.204;2023-03-03T03:43:01;0.73;;;0.73;;
13764;SDS011;6953;48.810;9.204;2023-03-03T03:45:27;0.90;;;0.90;;
13764;SDS011;6953;48.810;9.204;2023-03-03T03:47:52;0.80;;;0.80;;
13764;SDS011;6953;48.810;9.204;2023-03-03T03:50:17;0.80;;;0.80;;
13764;SDS011;6953;48.810;9.204;2023-03-03T03:52:43;0.80;;;0.80;;
13764;SDS011;6953;48.810;9.204;2023-03-03T03:55:08;0.70;;;0.70;;
13764;SDS011;6953;48.810;9.204;2023-03-03T03:57:34;0.80;;;0.80;;
13764;SDS011;6953;48.810;9.204;2023-03-03T04:00:00;0.73;;;0.73;;
13764;SDS011;6953;48.810;9.204;2023-03-03T04:02:25;0.80;;;0.80;;
13764;SDS011;6953;48.810;9.204;2023-03-03T04:04:50;0.70;;;0.70;;
13764;SDS011;6953;48.810;9.204;2023-03-03T04:07:16;0.70;;;0.70;;
13764;SDS011;6953;48.810;9.204;2023-03-03T04:09:41;0.70;;;0.70;;
13764;SDS011;6953;48.810;9.204;2023-03-03T04:12:06;0.80;;;0.80;;
13764;SDS011;6953;48.810;9.204;2023-03-03T04:14:32;0.80;;;0.80;;
13764;SDS011;6953;48.810;9.204;2023-03-03T04:16:57;0.70;;;0.70;;
13764;SDS011;6953;48.810;9.204;2023-03-03T04:19:22;0.70;;;0.70;;
13764;SDS011;6953;48.810;9.204;2023-03-03T04:21:48;0.70;;;0.70;;
13764;SDS011;6953;48.810;9.204;2023-03-03T04:24:13;0.70;;;0.70;;
13764;SDS011;6953;48.810;9.204;2023-03-03T04:26:38;0.70;;;0.70;;
13764;SDS011;6953;48.810;9.204;2023-03-03T04:29:04;0.80;;;0.80;;
13764;SDS011;6953;48.810;9.204;2023-03-03T04:31:29;0.80;;;0.80;;
13764;SDS011;6953;48.810;9.204;2023-03-03T04:33:55;0.80;;;0.80;;
13764;SDS011;6953;48.810;9.204;2023-03-03T04:36:20;0.77;;;0.77;;
13764;SDS011;6953;48.810;9.204;2023-03-03T04:38:46;0.60;;;0.60;;
13764;SDS011;6953;48.810;9.204;2023-03-03T04:41:11;0.70;;;0.70;;
13764;SDS011;6953;48.810;9.204;2023-03-03T04:43:37;0.70;;;0.70;;
13764;SDS011;6953;48.810;9.204;2023-03-03T04:46:02;0.80;;;0.80;;
13764;SDS011;6953;48.810;9.204;2023-03-03T04:48:28;0.80;;;0.80;;
13764;SDS011;6953;48.810;9.204;2023-03-03T04:50:53;0.70;;;0.70;;
13764;SDS011;6953;48.810;9.204;2023-03-03T04:53:19;0.80;;;0.80;;
13764;SDS011;6953;48.810;9.204;2023-03-03T04:55:44;0.80;;;0.80;;
13764;SDS011;6953;48.810;9.204;2023-03-03T04:58:10;0.80;;;0.80;;
13764;SDS011;6953;48.810;9.204;2023-03-03T05:00:35;0.60;;;0.60;;
13764;SDS011;6953;48.810;9.204;2023-03-03T05:03:01;0.70;;;0.70;;
13764;SDS011;6953;48.810;9.204;2023-03-03T05:05:26;0.70;;;0.70;;
13764;SDS011;6953;48.810;9.204;2023-03-03T05:07:52;0.70;;;0.70;;
13764;SDS011;6953;48.810;9.204;2023-03-03T05:10:17;0.60;;;0.60;;
13764;SDS011;6953;48.810;9.204;2023-03-03T05:12:43;0.70;;;0.70;;
13764;SDS011;6953;48.810;9.204;2023-03-03T05:15:08;0.70;;;0.70;;
13764;SDS011;6953;48.810;9.204;2023-03-03T05:17:35;0.70;;;0.70;;
13764;SDS011;6953;48.810;9.204;2023-03-03T05:20:01;0.60;;;0.60;;
13764;SDS011;6953;48.810;9.204;2023-03-03T05:22:27;0.77;;;0.77;;
13764;SDS011;6953;48.810;9.204;2023-03-03T05:24:52;0.70;;;0.70;;
13764;SDS011;6953;48.810;9.204;2023-03-03T05:27:18;0.80;;;0.80;;
13764;SDS011;6953;48.810;9.204;2023-03-03T05:29:43;0.70;;;0.70;;
13764;SDS011;6953;48.810;9.204;2023-03-03T05:32:09;0.77;;;0.77;;
13764;SDS011;6953;48.810;9.204;2023-03-03T05:34:35;0.70;;;0.70;;
13764;SDS011;6953;48.810;9.204;2023-03-03T05:37:00;0.60;;;0.60;;
13764;SDS011;6953;48.810;9.204;2023-03-03T05:39:27;0.70;;;0.70;;
13764;SDS011;6953;48.810;9.204;2023-03-03T05:41:53;0.70;;;0.70;;
13764;SDS011;6953;48.810;9.204;2023-03-03T05:44:18;0.67;;;0.67;;
13764;SDS011;6953;48.810;9.204;2023-03-03T05:46:44;0.70;;;0.70;;
13764;SDS011;6953;48.810;9.204;2023-03-03T05:49:09;0.70;;;0.70;;
13764;SDS011;6953;48.810;9.204;2023-03-03T05:51:34;0.70;;;0.70;;
13764;SDS011;6953;48.810;9.204;2023-03-03T05:54:00;0.70;;;0.70;;
13764;SDS011;6953;48.810;9.204;2023-03-03T05:56:25;0.70;;;0.70;;
13764;SDS011;6953;48.810;9.204;2023-03-03T05:58:50;0.80;;;0.80;;
13764;SDS011;6953;48.810;9.204;2023-03-03T06:01:16;0.70;;;0.70;;
13764;SDS011;6953;48.810;9.204;2023-03-03T06:03:41;0.70;;;0.70;;
13764;SDS011;6953;48.810;9.204;2023-03-03T06:06:07;0.70;;;0.70;;
13764;SDS011;6953;48.810;9.204;2023-03-03T06:08:33;0.80;;;0.80;;
13764;SDS011;6953;48.810;9.204;2023-03-03T06:10:58;0.70;;;0.70;;
13764;SDS011;6953;48.810;9.204;2023-03-03T06:13:23;0.80;;;0.80;;
13764;SDS011;6953;48.810;9.204;2023-03-03T06:15:49;0.70;;;0.70;;
13764;SDS011;6953;48.810;9.204;2023-03-03T06:18:14;0.80;;;0.80;;
13764;SDS011;6953;48.810;9.204;2023-03-03T06:20:40;0.80;;;0.80;;
13764;SDS011;6953;48.810;9.204;2023-03-03T06:23:05;0.87;;;0.87;;
13764;SDS011;6953;48.810;9.204;2023-03-03T06:25:31;0.70;;;0.70;;
13764;SDS011;6953;48.810;9.204;2023-03-03T06:28:00;0.70;;;0.70;;
13764;SDS011;6953;48.810;9.204;2023-03-03T06:30:25;0.70;;;0.70;;
13764;SDS011;6953;48.810;9.204;2023-03-03T06:32:52;0.73;;;0.73;;
13764;SDS011;6953;48.810;9.204;2023-03-03T06:35:18;0.70;;;0.70;;
13764;SDS011;6953;48.810;9.204;2023-03-03T06:37:43;0.70;;;0.70;;
13764;SDS011;6953;48.810;9.204;2023-03-03T06:40:09;0.70;;;0.70;;
13764;SDS011;6953;48.810;9.204;2023-03-03T06:42:35;0.70;;;0.70;;
13764;SDS011;6953;48.810;9.204;2023-03-03T06:45:00;0.70;;;0.70;;
13764;SDS011;6953;48.810;9.204;2023-03-03T06:47:26;0.60;;;0.60;;
13764;SDS011;6953;48.810;9.204;2023-03-03T06:49:51;0.60;;;0.60;;
13764;SDS011;6953;48.810;9.204;2023-03-03T06:52:18;0.80;;;0.80;;
13764;SDS011;6953;48.810;9.204;2023-03-03T06:54:46;0.70;;;0.70;;
13764;SDS011;6953;48.810;9.204;2023-03-03T06:57:28;0.73;;;0.73;;
13764;SDS011;6953;48.810;9.204;2023-03-03T06:59:57;0.70;;;0.70;;
13764;SDS011;6953;48.810;9.204;2023-03-03T07:02:34;0.63;;;0.63;;
13764;SDS011;6953;48.810;9.204;2023-03-03T07:04:59;0.70;;;0.70;;
13764;SDS011;6953;48.810;9.204;2023-03-03T07:07:25;0.80;;;0.80;;
13764;SDS011;6953;48.810;9.204;2023-03-03T07:09:52;0.70;;;0.70;;
13764;SDS011;6953;48.810;9.204;2023-03-03T07:12:23;0.80;;;0.80;;
13764;SDS011;6953;48.810;9.204;2023-03-03T07:15:04;0.80;;;0.80;;
13764;SDS011;6953;48.810;9.204;2023-03-03T07:17:36;0.80;;;0.80;;
13764;SDS011;6953;48.810;9.204;2023-03-03T07:20:13;0.70;;;0.70;;
13764;SDS011;6953;48.810;9.204;2023-03-03T07:22:52;0.80;;;0.80;;
13764;SDS011;6953;48.810;9.204;2023-03-03T07:25:35;0.80;;;0.80;;
13764;SDS011;6953;48.810;9.204;2023-03-03T07:28:16;0.70;;;0.70;;
13764;SDS011;6953;48.810;9.204;2023-03-03T07:30:47;0.70;;;0.70;;
13764;SDS011;6953;48.810;9.204;2023-03-03T07:33:18;0.70;;;0.70;;
13764;SDS011;6953;48.810;9.204;2023-03-03T07:36:05;0.77;;;0.77;;
13764;SDS011;6953;48.810;9.204;2023-03-03T07:38:46;0.53;;;0.53;;
13764;SDS011;6953;48.810;9.204;2023-03-03T07:41:17;0.70;;;0.70;;
13764;SDS011;6953;48.810;9.204;2023-03-03T07:43:53;0.50;;;0.50;;
13764;SDS011;6953;48.810;9.204;2023-03-03T07:46:24;0.80;;;0.80;;
13764;SDS011;6953;48.810;9.204;2023-03-03T07:48:55;0.70;;;0.70;;
13764;SDS011;6953;48.810;9.204;2023-03-03T07:51:24;0.60;;;0.60;;
13764;SDS011;6953;48.810;9.204;2023-03-03T07:56:44;0.60;;;0.60;;
13764;SDS011;6953;48.810;9.204;2023-03-03T07:59:20;0.70;;;0.70;;
13764;SDS011;6953;48.810;9.204;2023-03-03T08:01:55;0.60;;;0.60;;
13764;SDS011;6953;48.810;9.204;2023-03-03T08:04:39;0.60;;;0.60;;
13764;SDS011;6953;48.810;9.204;2023-03-03T08:07:16;0.63;;;0.63;;
13764;SDS011;6953;48.810;9.204;2023-03-03T08:12:27;0.50;;;0.50;;
13764;SDS011;6953;48.810;9.204;2023-03-03T08:15:17;0.60;;;0.60;;
13764;SDS011;6953;48.810;9.204;2023-03-03T08:17:44;0.63;;;0.63;;
13764;SDS011;6953;48.810;9.204;2023-03-03T08:23:11;0.50;;;0.50;;
13764;SDS011;6953;48.810;9.204;2023-03-03T08:25:37;0.50;;;0.50;;
13764;SDS011;6953;48.810;9.204;2023-03-03T08:28:03;0.50;;;0.50;;
13764;SDS011;6953;48.810;9.204;2023-03-03T08:30:29;0.40;;;0.40;;
13764;SDS011;6953;48.810;9.204;2023-03-03T08:32:56;0.50;;;0.50;;
13764;SDS011;6953;48.810;9.204;2023-03-03T08:35:21;0.40;;;0.40;;
13764;SDS011;6953;48.810;9.204;2023-03-03T08:37:46;0.40;;;0.40;;
13764;SDS011;6953;48.810;9.204;2023-03-03T08:40:12;0.50;;;0.50;;
13764;SDS011;6953;48.810;9.204;2023-03-03T08:42:37;0.40;;;0.40;;
13764;SDS011;6953;48.810;9.204;2023-03-03T08:45:03;0.38;;;0.38;;
13764;SDS011;6953;48.810;9.204;2023-03-03T08:47:28;0.30;;;0.30;;
13764;SDS011;6953;48.810;9.204;2023-03-03T08:49:54;0.30;;;0.30;;
13764;SDS011;6953;48.810;9.204;2023-03-03T08:52:19;0.30;;;0.30;;
13764;SDS011;6953;48.810;9.204;2023-03-03T08:54:44;0.28;;;0.28;;
13764;SDS011;6953;48.810;9.204;2023-03-03T08:57:10;0.30;;;0.30;;
13764;SDS011;6953;48.810;9.204;2023-03-03T08:59:36;0.30;;;0.30;;
13764;SDS011;6953;48.810;9.204;2023-03-03T09:02:03;0.20;;;0.20;;
13764;SDS011;6953;48.810;9.204;2023-03-03T09:04:30;0.20;;;0.20;;
13764;SDS011;6953;48.810;9.204;2023-03-03T09:06:55;0.25;;;0.25;;
13764;SDS011;6953;48.810;9.204;2023-03-03T09:09:20;0.20;;;0.20;;
13764;SDS011;6953;48.810;9.204;2023-03-03T09:11:46;0.20;;;0.20;;
13764;SDS011;6953;48.810;9.204;2023-03-03T09:14:15;0.30;;;0.30;;
13764;SDS011;6953;48.810;9.204;2023-03-03T09:16:52;0.30;;;0.30;;
13764;SDS011;6953;48.810;9.204;2023-03-03T09:21:55;0.30;;;0.30;;
13764;SDS011;6953;48.810;9.204;2023-03-03T09:24:28;0.30;;;0.30;;
13764;SDS011;6953;48.810;9.204;2023-03-03T09:26:55;0.40;;;0.40;;
13764;SDS011;6953;48.810;9.204;2023-03-03T09:29:30;0.50;;;0.50;;
13764;SDS011;6953;48.810;9.204;2023-03-03T09:32:07;0.50;;;0.50;;
13764;SDS011;6953;48.810;9.204;2023-03-03T09:34:47;0.40;;;0.40;;
13764;SDS011;6953;48.810;9.204;2023-03-03T09:37:22;0.50;;;0.50;;
13764;SDS011;6953;48.810;9.204;2023-03-03T09:39:52;0.57;;;0.57;;
13764;SDS011;6953;48.810;9.204;2023-03-03T09:45:26;0.47;;;0.47;;
13764;SDS011;6953;48.810;9.204;2023-03-03T09:56:28;0.20;;;0.20;;
13764;SDS011;6953;48.810;9.204;2023-03-03T09:59:05;0.30;;;0.30;;
13764;SDS011;6953;48.810;9.204;2023-03-03T10:07:25;0.30;;;0.30;;
13764;SDS011;6953;48.810;9.204;2023-03-03T10:18:00;0.20;;;0.20;;
13764;SDS011;6953;48.810;9.204;2023-03-03T10:21:37;0.30;;;0.30;;
13764;SDS011;6953;48.810;9.204;2023-03-03T10:26:20;0.30;;;0.30;;
13764;SDS011;6953;48.810;9.204;2023-03-03T10:31:52;0.30;;;0.30;;
13764;SDS011;6953;48.810;9.204;2023-03-03T10:48:17;0.30;;;0.30;;
13764;SDS011;6953;48.810;9.204;2023-03-03T10:53:44;0.20;;;0.20;;
13764;SDS011;6953;48.810;9.204;2023-03-03T11:02:25;0.20;;;0.20;;
13764;SDS011;6953;48.810;9.204;2023-03-03T11:05:10;0.20;;;0.20;;
13764;SDS011;6953;48.810;9.204;2023-03-03T11:07:47;0.30;;;0.30;;
13764;SDS011;6953;48.810;9.204;2023-03-03T11:21:25;0.30;;;0.30;;
13764;SDS011;6953;48.810;9.204;2023-03-03T11:29:16;0.30;;;0.30;;
13764;SDS011;6953;48.810;9.204;2023-03-03T11:31:56;0.20;;;0.20;;
13764;SDS011;6953;48.810;9.204;2023-03-03T11:34:44;0.30;;;0.30;;
13764;SDS011;6953;48.810;9.204;2023-03-03T11:39:43;0.30;;;0.30;;
13764;SDS011;6953;48.810;9.204;2023-03-03T11:42:20;0.20;;;0.20;;
13764;SDS011;6953;48.810;9.204;2023-03-03T11:45:07;0.30;;;0.30;;
13764;SDS011;6953;48.810;9.204;2023-03-03T11:47:44;0.30;;;0.30;;
13764;SDS011;6953;48.810;9.204;2023-03-03T11:50:15;0.32;;;0.32;;
13764;SDS011;6953;48.810;9.204;2023-03-03T11:55:47;0.40;;;0.40;;
13764;SDS011;6953;48.810;9.204;2023-03-03T12:03:28;0.40;;;0.40;;
13764;SDS011;6953;48.810;9.204;2023-03-03T12:16:54;0.20;;;0.20;;
13764;SDS011;6953;48.810;9.204;2023-03-03T12:27:25;0.10;;;0.10;;
13764;SDS011;6953;48.810;9.204;2023-03-03T12:29:56;0.10;;;0.10;;
13764;SDS011;6953;48.810;9.204;2023-03-03T12:32:30;0.10;;;0.10;;
13764;SDS011;6953;48.810;9.204;2023-03-03T12:35:19;0.10;;;0.10;;
13764;SDS011;6953;48.810;9.204;2023-03-03T12:38:11;0.10;;;0.10;;
13764;SDS011;6953;48.810;9.204;2023-03-03T12:41:11;0.20;;;0.20;;
13764;SDS011;6953;48.810;9.204;2023-03-03T12:49:16;0.10;;;0.10;;
13764;SDS011;6953;48.810;9.204;2023-03-03T13:04:55;0.10;;;0.10;;
13764;SDS011;6953;48.810;9.204;2023-03-03T13:07:36;0.10;;;0.10;;
13764;SDS011;6953;48.810;9.204;2023-03-03T13:10:15;0.10;;;0.10;;
13764;SDS011;6953;48.810;9.204;2023-03-03T13:18:15;0.10;;;0.10;;
13764;SDS011;6953;48.810;9.204;2023-03-03T13:20:55;0.20;;;0.20;;
13764;SDS011;6953;48.810;9.204;2023-03-03T13:26:09;0.30;;;0.30;;
13764;SDS011;6953;48.810;9.204;2023-03-03T13:31:42;0.30;;;0.30;;
13764;SDS011;6953;48.810;9.204;2023-03-03T13:34:19;0.30;;;0.30;;
13764;SDS011;6953;48.810;9.204;2023-03-03T13:36:56;0.30;;;0.30;;
13764;SDS011;6953;48.810;9.204;2023-03-03T13:39:30;0.30;;;0.30;;
13764;SDS011;6953;48.810;9.204;2023-03-03T13:42:02;0.40;;;0.40;;
13764;SDS011;6953;48.810;9.204;2023-03-03T13:44:39;0.30;;;0.30;;
13764;SDS011;6953;48.810;9.204;2023-03-03T13:50:12;0.43;;;0.43;;
13764;SDS011;6953;48.810;9.204;2023-03-03T13:58:59;0.50;;;0.50;;
13764;SDS011;6953;48.810;9.204;2023-03-03T14:01:54;0.40;;;0.40;;
13764;SDS011;6953;48.810;9.204;2023-03-03T14:07:13;0.50;;;0.50;;
13764;SDS011;6953;48.810;9.204;2023-03-03T14:09:46;0.45;;;0.45;;
13764;SDS011;6953;48.810;9.204;2023-03-03T14:20:21;0.50;;;0.50;;
13764;SDS011;6953;48.810;9.204;2023-03-03T14:22:56;0.40;;;0.40;;
13764;SDS011;6953;48.810;9.204;2023-03-03T14:25:25;0.50;;;0.50;;
13764;SDS011;6953;48.810;9.204;2023-03-03T14:28:08;0.50;;;0.50;;
13764;SDS011;6953;48.810;9.204;2023-03-03T14:30:43;0.50;;;0.50;;
13764;SDS011;6953;48.810;9.204;2023-03-03T14:35:35;0.60;;;0.60;;
13764;SDS011;6953;48.810;9.204;2023-03-03T14:40:33;0.50;;;0.50;;
13764;SDS011;6953;48.810;9.204;2023-03-03T14:43:02;0.50;;;0.50;;
13764;SDS011;6953;48.810;9.204;2023-03-03T14:45:42;0.50;;;0.50;;
13764;SDS011;6953;48.810;9.204;2023-03-03T14:50:51;0.45;;;0.45;;
13764;SDS011;6953;48.810;9.204;2023-03-03T14:53:22;0.50;;;0.50;;
13764;SDS011;6953;48.810;9.204;2023-03-03T14:55:54;0.60;;;0.60;;
13764;SDS011;6953;48.810;9.204;2023-03-03T14:58:39;0.50;;;0.50;;
13764;SDS011;6953;48.810;9.204;2023-03-03T15:01:51;0.50;;;0.50;;
13764;SDS011;6953;48.810;9.204;2023-03-03T15:04:00;0.60;;;0.60;;
13764;SDS011;6953;48.810;9.204;2023-03-03T15:06:32;0.50;;;0.50;;
13764;SDS011;6953;48.810;9.204;2023-03-03T15:11:54;0.60;;;0.60;;
13764;SDS011;6953;48.810;9.204;2023-03-03T15:14:27;0.57;;;0.57;;
13764;SDS011;6953;48.810;9.204;2023-03-03T15:17:12;0.40;;;0.40;;
13764;SDS011;6953;48.810;9.204;2023-03-03T15:19:46;0.60;;;0.60;;
13764;SDS011;6953;48.810;9.204;2023-03-03T15:24:52;0.52;;;0.52;;
13764;SDS011;6953;48.810;9.204;2023-03-03T15:27:28;0.50;;;0.50;;
13764;SDS011;6953;48.810;9.204;2023-03-03T15:30:03;0.50;;;0.50;;
13764;SDS011;6953;48.810;9.204;2023-03-03T15:33:01;0.50;;;0.50;;
13764;SDS011;6953;48.810;9.204;2023-03-03T15:40:52;0.50;;;0.50;;
13764;SDS011;6953;48.810;9.204;2023-03-03T15:43:39;0.60;;;0.60;;
13764;SDS011;6953;48.810;9.204;2023-03-03T16:00:04;0.60;;;0.60;;
13764;SDS011;6953;48.810;9.204;2023-03-03T16:08:46;0.47;;;0.47;;
13764;SDS011;6953;48.810;9.204;2023-03-03T16:11:23;0.50;;;0.50;;
13764;SDS011;6953;48.810;9.204;2023-03-03T16:21:53;0.57;;;0.57;;
13764;SDS011;6953;48.810;9.204;2023-03-03T16:24:26;0.50;;;0.50;;
13764;SDS011;6953;48.810;9.204;2023-03-03T16:26:57;0.50;;;0.50;;
13764;SDS011;6953;48.810;9.204;2023-03-03T16:32:19;0.50;;;0.50;;
13764;SDS011;6953;48.810;9.204;2023-03-03T16:35:21;0.47;;;0.47;;
13764;SDS011;6953;48.810;9.204;2023-03-03T16:40:22;0.57;;;0.57;;
13764;SDS011;6953;48.810;9.204;2023-03-03T16:43:05;0.82;;;0.82;;
13764;SDS011;6953;48.810;9.204;2023-03-03T16:45:42;0.80;;;0.80;;
13764;SDS011;6953;48.810;9.204;2023-03-03T16:48:21;0.82;;;0.82;;
13764;SDS011;6953;48.810;9.204;2023-03-03T17:07:35;1.10;;;1.10;;
13764;SDS011;6953;48.810;9.204;2023-03-03T17:10:26;0.90;;;0.90;;
13764;SDS011;6953;48.810;9.204;2023-03-03T17:13:13;0.90;;;0.90;;
13764;SDS011;6953;48.810;9.204;2023-03-03T17:15:59;0.90;;;0.90;;
13764;SDS011;6953;48.810;9.204;2023-03-03T17:23:52;0.87;;;0.87;;
13764;SDS011;6953;48.810;9.204;2023-03-03T17:32:21;0.80;;;0.80;;
13764;SDS011;6953;48.810;9.204;2023-03-03T17:38:04;0.90;;;0.90;;
13764;SDS011;6953;48.810;9.204;2023-03-03T17:43:26;0.80;;;0.80;;
13764;SDS011;6953;48.810;9.204;2023-03-03T17:45:58;0.60;;;0.60;;
13764;SDS011;6953;48.810;9.204;2023-03-03T17:51:19;0.60;;;0.60;;
13764;SDS011;6953;48.810;9.204;2023-03-03T17:54:28;0.90;;;0.90;;
13764;SDS011;6953;48.810;9.204;2023-03-03T17:59:54;0.60;;;0.60;;
13764;SDS011;6953;48.810;9.204;2023-03-03T18:02:56;0.60;;;0.60;;
13764;SDS011;6953;48.810;9.204;2023-03-03T18:08:23;0.90;;;0.90;;
13764;SDS011;6953;48.810;9.204;2023-03-03T18:19:07;1.00;;;1.00;;
13764;SDS011;6953;48.810;9.204;2023-03-03T18:24:13;1.00;;;1.00;;
13764;SDS011;6953;48.810;9.204;2023-03-03T18:26:51;1.10;;;1.10;;
13764;SDS011;6953;48.810;9.204;2023-03-03T18:36:55;1.10;;;1.10;;
13764;SDS011;6953;48.810;9.204;2023-03-03T18:39:48;1.10;;;1.10;;
13764;SDS011;6953;48.810;9.204;2023-03-03T18:42:40;1.20;;;1.20;;
13764;SDS011;6953;48.810;9.204;2023-03-03T18:50:32;0.90;;;0.90;;
13764;SDS011;6953;48.810;9.204;2023-03-03T18:55:54;1.00;;;1.00;;
13764;SDS011;6953;48.810;9.204;2023-03-03T18:58:34;0.93;;;0.93;;
13764;SDS011;6953;48.810;9.204;2023-03-03T19:03:35;1.00;;;1.00;;
13764;SDS011;6953;48.810;9.204;2023-03-03T19:06:53;1.00;;;1.00;;
13764;SDS011;6953;48.810;9.204;2023-03-03T19:09:17;1.10;;;1.10;;
13764;SDS011;6953;48.810;9.204;2023-03-03T19:11:53;0.90;;;0.90;;
13764;SDS011;6953;48.810;9.204;2023-03-03T19:16:53;1.07;;;1.07;;
13764;SDS011;6953;48.810;9.204;2023-03-03T19:19:20;0.90;;;0.90;;
13764;SDS011;6953;48.810;9.204;2023-03-03T19:22:12;0.70;;;0.70;;
13764;SDS011;6953;48.810;9.204;2023-03-03T19:25:13;0.97;;;0.97;;
13764;SDS011;6953;48.810;9.204;2023-03-03T19:30:38;0.87;;;0.87;;
13764;SDS011;6953;48.810;9.204;2023-03-03T19:39:19;1.00;;;1.00;;
13764;SDS011;6953;48.810;9.204;2023-03-03T19:41:40;1.10;;;1.10;;
13764;SDS011;6953;48.810;9.204;2023-03-03T19:47:16;1.00;;;1.00;;
13764;SDS011;6953;48.810;9.204;2023-03-03T20:02:42;0.60;;;0.60;;
13764;SDS011;6953;48.810;9.204;2023-03-03T20:05:22;0.70;;;0.70;;
13764;SDS011;6953;48.810;9.204;2023-03-03T20:08:09;0.63;;;0.63;;
13764;SDS011;6953;48.810;9.204;2023-03-03T20:15:51;0.70;;;0.70;;
13764;SDS011;6953;48.810;9.204;2023-03-03T20:23:47;0.63;;;0.63;;
13764;SDS011;6953;48.810;9.204;2023-03-03T20:26:30;0.60;;;0.60;;
13764;SDS011;6953;48.810;9.204;2023-03-03T20:32:16;0.60;;;0.60;;
13764;SDS011;6953;48.810;9.204;2023-03-03T20:40:33;0.60;;;0.60;;
13764;SDS011;6953;48.810;9.204;2023-03-03T20:51:31;0.70;;;0.70;;
13764;SDS011;6953;48.810;9.204;2023-03-03T20:54:12;0.53;;;0.53;;
13764;SDS011;6953;48.810;9.204;2023-03-03T20:56:52;0.70;;;0.70;;
13764;SDS011;6953;48.810;9.204;2023-03-03T20:59:48;0.70;;;0.70;;
13764;SDS011;6953;48.810;9.204;2023-03-03T21:02:30;0.70;;;0.70;;
13764;SDS011;6953;48.810;9.204;2023-03-03T21:05:06;0.60;;;0.60;;
13764;SDS011;6953;48.810;9.204;2023-03-03T21:07:56;0.70;;;0.70;;
13764;SDS011;6953;48.810;9.204;2023-03-03T21:10:26;0.73;;;0.73;;
13764;SDS011;6953;48.810;9.204;2023-03-03T21:12:53;0.70;;;0.70;;
13764;SDS011;6953;48.810;9.204;2023-03-03T21:15:30;0.70;;;0.70;;
13764;SDS011;6953;48.810;9.204;2023-03-03T21:17:58;0.70;;;0.70;;
13764;SDS011;6953;48.810;9.204;2023-03-03T21:20:25;0.80;;;0.80;;